sensor_id;sensor_type;location;lat;lon;timestamp;P1;durP1;ratioP1;P2;durP2;ratioP2
36377;SDS011;22402;42.746;23.606;2022-10-16T00:01:04;8.37;;;4.50;;
36377;SDS011;22402;42.746;23.606;2022-10-16T00:03:30;13.60;;;4.70;;
36377;SDS011;22402;42.746;23.606;2022-10-16T00:05:58;9.07;;;4.47;;
36377;SDS011;22402;42.746;23.606;2022-10-16T00:08:24;9.13;;;4.50;;
36377;SDS011;22402;42.746;23.606;2022-10-16T00:10:50;9.63;;;4.73;;
36377;SDS011;22402;42.746;23.606;2022-10-16T00:13:15;8.67;;;5.03;;
36377;SDS011;22402;42.746;23.606;2022-10-16T00:15:41;7.50;;;4.23;;
36377;SDS011;22402;42.746;23.606;2022-10-16T00:18:06;9.53;;;4.83;;
36377;SDS011;22402;42.746;23.606;2022-10-16T00:20:33;8.30;;;4.80;;
36377;SDS011;22402;42.746;23.606;2022-10-16T00:22:59;8.90;;;5.00;;
36377;SDS011;22402;42.746;23.606;2022-10-16T00:25:24;8.23;;;4.03;;
36377;SDS011;22402;42.746;23.606;2022-10-16T00:27:50;6.57;;;3.83;;
36377;SDS011;22402;42.746;23.606;2022-10-16T00:30:15;9.70;;;4.80;;
36377;SDS011;22402;42.746;23.606;2022-10-16T00:32:41;6.87;;;4.77;;
36377;SDS011;22402;42.746;23.606;2022-10-16T00:35:06;9.20;;;5.33;;
36377;SDS011;22402;42.746;23.606;2022-10-16T00:37:31;10.93;;;4.83;;
36377;SDS011;22402;42.746;23.606;2022-10-16T00:39:57;7.33;;;4.27;;
36377;SDS011;22402;42.746;23.606;2022-10-16T00:42:22;6.23;;;4.00;;
36377;SDS011;22402;42.746;23.606;2022-10-16T00:44:52;8.40;;;4.50;;
36377;SDS011;22402;42.746;23.606;2022-10-16T00:47:23;9.57;;;4.80;;
36377;SDS011;22402;42.746;23.606;2022-10-16T00:49:50;7.47;;;4.47;;
36377;SDS011;22402;42.746;23.606;2022-10-16T00:52:18;13.03;;;5.00;;
36377;SDS011;22402;42.746;23.606;2022-10-16T00:54:44;7.00;;;4.33;;
36377;SDS011;22402;42.746;23.606;2022-10-16T00:57:11;12.50;;;4.60;;
36377;SDS011;22402;42.746;23.606;2022-10-16T00:59:37;7.67;;;4.60;;
36377;SDS011;22402;42.746;23.606;2022-10-16T01:02:06;8.63;;;4.37;;
36377;SDS011;22402;42.746;23.606;2022-10-16T01:04:38;11.23;;;4.93;;
36377;SDS011;22402;42.746;23.606;2022-10-16T01:07:12;6.07;;;4.07;;
36377;SDS011;22402;42.746;23.606;2022-10-16T01:17:41;8.40;;;4.83;;
36377;SDS011;22402;42.746;23.606;2022-10-16T01:26:19;7.50;;;4.63;;
36377;SDS011;22402;42.746;23.606;2022-10-16T01:28:34;6.13;;;3.70;;
36377;SDS011;22402;42.746;23.606;2022-10-16T01:31:04;7.53;;;4.30;;
36377;SDS011;22402;42.746;23.606;2022-10-16T01:33:34;8.83;;;4.27;;
36377;SDS011;22402;42.746;23.606;2022-10-16T01:36:05;7.80;;;4.70;;
36377;SDS011;22402;42.746;23.606;2022-10-16T01:38:36;8.60;;;4.27;;
36377;SDS011;22402;42.746;23.606;2022-10-16T01:41:10;9.80;;;4.53;;
36377;SDS011;22402;42.746;23.606;2022-10-16T01:43:41;9.07;;;4.47;;
36377;SDS011;22402;42.746;23.606;2022-10-16T01:46:13;12.93;;;4.00;;
36377;SDS011;22402;42.746;23.606;2022-10-16T01:48:41;7.63;;;4.20;;
36377;SDS011;22402;42.746;23.606;2022-10-16T01:51:08;10.93;;;4.00;;
36377;SDS011;22402;42.746;23.606;2022-10-16T01:53:37;8.90;;;4.77;;
36377;SDS011;22402;42.746;23.606;2022-10-16T01:56:04;5.90;;;3.93;;
36377;SDS011;22402;42.746;23.606;2022-10-16T01:58:34;7.10;;;4.17;;
36377;SDS011;22402;42.746;23.606;2022-10-16T02:01:04;9.67;;;4.30;;
36377;SDS011;22402;42.746;23.606;2022-10-16T02:03:34;7.57;;;5.07;;
36377;SDS011;22402;42.746;23.606;2022-10-16T02:06:03;7.03;;;3.97;;
36377;SDS011;22402;42.746;23.606;2022-10-16T02:08:28;7.97;;;3.80;;
36377;SDS011;22402;42.746;23.606;2022-10-16T02:10:56;10.07;;;4.97;;
36377;SDS011;22402;42.746;23.606;2022-10-16T02:13:27;20.27;;;9.23;;
36377;SDS011;22402;42.746;23.606;2022-10-16T02:15:55;11.50;;;6.20;;
36377;SDS011;22402;42.746;23.606;2022-10-16T02:18:21;8.30;;;5.17;;
36377;SDS011;22402;42.746;23.606;2022-10-16T02:20:55;7.67;;;4.70;;
36377;SDS011;22402;42.746;23.606;2022-10-16T02:23:27;9.70;;;5.53;;
36377;SDS011;22402;42.746;23.606;2022-10-16T02:26:03;9.20;;;5.37;;
36377;SDS011;22402;42.746;23.606;2022-10-16T02:28:35;10.17;;;4.73;;
36377;SDS011;22402;42.746;23.606;2022-10-16T02:31:07;11.97;;;6.53;;
36377;SDS011;22402;42.746;23.606;2022-10-16T02:33:36;7.17;;;4.50;;
36377;SDS011;22402;42.746;23.606;2022-10-16T02:36:05;11.53;;;5.33;;
36377;SDS011;22402;42.746;23.606;2022-10-16T02:38:32;8.60;;;4.93;;
36377;SDS011;22402;42.746;23.606;2022-10-16T02:40:58;7.50;;;4.87;;
36377;SDS011;22402;42.746;23.606;2022-10-16T02:43:24;8.97;;;4.67;;
36377;SDS011;22402;42.746;23.606;2022-10-16T02:45:50;9.47;;;5.33;;
36377;SDS011;22402;42.746;23.606;2022-10-16T02:48:15;11.17;;;5.47;;
36377;SDS011;22402;42.746;23.606;2022-10-16T02:50:41;10.03;;;5.50;;
36377;SDS011;22402;42.746;23.606;2022-10-16T02:53:06;15.43;;;5.10;;
36377;SDS011;22402;42.746;23.606;2022-10-16T02:55:31;15.93;;;5.83;;
36377;SDS011;22402;42.746;23.606;2022-10-16T02:57:57;8.50;;;5.20;;
36377;SDS011;22402;42.746;23.606;2022-10-16T03:00:22;10.73;;;6.33;;
36377;SDS011;22402;42.746;23.606;2022-10-16T03:02:48;8.83;;;5.07;;
36377;SDS011;22402;42.746;23.606;2022-10-16T03:05:13;12.77;;;5.60;;
36377;SDS011;22402;42.746;23.606;2022-10-16T03:07:39;9.27;;;5.30;;
36377;SDS011;22402;42.746;23.606;2022-10-16T03:10:05;10.63;;;4.97;;
36377;SDS011;22402;42.746;23.606;2022-10-16T03:12:31;6.93;;;5.03;;
36377;SDS011;22402;42.746;23.606;2022-10-16T03:14:56;12.90;;;7.00;;
36377;SDS011;22402;42.746;23.606;2022-10-16T03:17:22;12.33;;;7.00;;
36377;SDS011;22402;42.746;23.606;2022-10-16T03:19:48;10.83;;;6.53;;
36377;SDS011;22402;42.746;23.606;2022-10-16T03:22:13;10.80;;;5.53;;
36377;SDS011;22402;42.746;23.606;2022-10-16T03:24:39;10.70;;;6.00;;
36377;SDS011;22402;42.746;23.606;2022-10-16T03:27:04;12.80;;;7.27;;
36377;SDS011;22402;42.746;23.606;2022-10-16T03:29:29;10.63;;;6.63;;
36377;SDS011;22402;42.746;23.606;2022-10-16T03:31:55;15.27;;;6.90;;
36377;SDS011;22402;42.746;23.606;2022-10-16T03:34:21;9.33;;;5.70;;
36377;SDS011;22402;42.746;23.606;2022-10-16T03:36:46;13.20;;;5.80;;
36377;SDS011;22402;42.746;23.606;2022-10-16T03:39:12;10.70;;;6.53;;
36377;SDS011;22402;42.746;23.606;2022-10-16T03:41:37;11.33;;;6.07;;
36377;SDS011;22402;42.746;23.606;2022-10-16T03:44:02;10.87;;;5.23;;
36377;SDS011;22402;42.746;23.606;2022-10-16T03:46:28;47.93;;;14.73;;
36377;SDS011;22402;42.746;23.606;2022-10-16T03:51:28;19.07;;;7.60;;
36377;SDS011;22402;42.746;23.606;2022-10-16T03:53:54;17.53;;;7.07;;
36377;SDS011;22402;42.746;23.606;2022-10-16T03:56:19;15.53;;;7.60;;
36377;SDS011;22402;42.746;23.606;2022-10-16T03:58:45;15.60;;;7.07;;
36377;SDS011;22402;42.746;23.606;2022-10-16T04:01:10;16.40;;;6.70;;
36377;SDS011;22402;42.746;23.606;2022-10-16T04:03:36;17.17;;;6.53;;
36377;SDS011;22402;42.746;23.606;2022-10-16T04:06:01;13.43;;;6.93;;
36377;SDS011;22402;42.746;23.606;2022-10-16T04:08:26;15.17;;;6.40;;
36377;SDS011;22402;42.746;23.606;2022-10-16T04:10:54;15.77;;;6.37;;
36377;SDS011;22402;42.746;23.606;2022-10-16T04:13:20;18.70;;;7.60;;
36377;SDS011;22402;42.746;23.606;2022-10-16T04:15:45;17.57;;;8.20;;
36377;SDS011;22402;42.746;23.606;2022-10-16T04:18:11;15.70;;;6.67;;
36377;SDS011;22402;42.746;23.606;2022-10-16T04:20:36;13.00;;;6.27;;
36377;SDS011;22402;42.746;23.606;2022-10-16T04:23:02;17.20;;;7.70;;
36377;SDS011;22402;42.746;23.606;2022-10-16T04:25:28;17.93;;;7.17;;
36377;SDS011;22402;42.746;23.606;2022-10-16T04:27:53;18.80;;;8.00;;
36377;SDS011;22402;42.746;23.606;2022-10-16T04:30:19;19.37;;;7.27;;
36377;SDS011;22402;42.746;23.606;2022-10-16T04:32:52;10.87;;;6.07;;
36377;SDS011;22402;42.746;23.606;2022-10-16T04:35:18;11.40;;;6.43;;
36377;SDS011;22402;42.746;23.606;2022-10-16T04:37:47;11.83;;;6.07;;
36377;SDS011;22402;42.746;23.606;2022-10-16T04:40:12;17.50;;;8.43;;
36377;SDS011;22402;42.746;23.606;2022-10-16T04:42:38;13.10;;;6.90;;
36377;SDS011;22402;42.746;23.606;2022-10-16T04:45:04;15.90;;;7.60;;
36377;SDS011;22402;42.746;23.606;2022-10-16T04:47:30;19.03;;;8.37;;
36377;SDS011;22402;42.746;23.606;2022-10-16T04:49:56;15.00;;;6.87;;
36377;SDS011;22402;42.746;23.606;2022-10-16T04:52:21;13.10;;;6.80;;
36377;SDS011;22402;42.746;23.606;2022-10-16T04:54:47;17.30;;;8.10;;
36377;SDS011;22402;42.746;23.606;2022-10-16T04:57:12;24.80;;;9.03;;
36377;SDS011;22402;42.746;23.606;2022-10-16T04:59:38;22.57;;;8.27;;
36377;SDS011;22402;42.746;23.606;2022-10-16T05:02:03;17.33;;;8.17;;
36377;SDS011;22402;42.746;23.606;2022-10-16T05:04:29;14.10;;;7.23;;
36377;SDS011;22402;42.746;23.606;2022-10-16T05:06:54;16.53;;;6.73;;
36377;SDS011;22402;42.746;23.606;2022-10-16T05:09:19;9.07;;;5.97;;
36377;SDS011;22402;42.746;23.606;2022-10-16T05:11:45;20.00;;;7.93;;
36377;SDS011;22402;42.746;23.606;2022-10-16T05:14:10;18.47;;;7.00;;
36377;SDS011;22402;42.746;23.606;2022-10-16T05:16:35;18.67;;;7.67;;
36377;SDS011;22402;42.746;23.606;2022-10-16T05:19:01;24.50;;;8.77;;
36377;SDS011;22402;42.746;23.606;2022-10-16T05:21:26;21.37;;;11.33;;
36377;SDS011;22402;42.746;23.606;2022-10-16T05:23:54;30.47;;;14.27;;
36377;SDS011;22402;42.746;23.606;2022-10-16T05:26:19;17.03;;;9.13;;
36377;SDS011;22402;42.746;23.606;2022-10-16T05:28:45;18.73;;;8.57;;
36377;SDS011;22402;42.746;23.606;2022-10-16T05:31:10;25.33;;;8.60;;
36377;SDS011;22402;42.746;23.606;2022-10-16T05:33:38;22.20;;;11.80;;
36377;SDS011;22402;42.746;23.606;2022-10-16T05:36:04;14.83;;;8.10;;
36377;SDS011;22402;42.746;23.606;2022-10-16T05:38:31;11.40;;;6.30;;
36377;SDS011;22402;42.746;23.606;2022-10-16T05:40:56;10.90;;;5.80;;
36377;SDS011;22402;42.746;23.606;2022-10-16T05:43:24;14.70;;;6.83;;
36377;SDS011;22402;42.746;23.606;2022-10-16T05:45:57;11.70;;;6.03;;
36377;SDS011;22402;42.746;23.606;2022-10-16T05:48:34;32.17;;;10.53;;
36377;SDS011;22402;42.746;23.606;2022-10-16T05:51:05;16.53;;;7.80;;
36377;SDS011;22402;42.746;23.606;2022-10-16T05:53:35;12.37;;;6.07;;
36377;SDS011;22402;42.746;23.606;2022-10-16T05:56:02;14.63;;;7.07;;
36377;SDS011;22402;42.746;23.606;2022-10-16T05:58:29;21.80;;;7.50;;
36377;SDS011;22402;42.746;23.606;2022-10-16T06:01:14;14.27;;;6.17;;
36377;SDS011;22402;42.746;23.606;2022-10-16T06:03:44;16.97;;;6.30;;
36377;SDS011;22402;42.746;23.606;2022-10-16T06:08:46;13.67;;;5.93;;
36377;SDS011;22402;42.746;23.606;2022-10-16T06:11:14;10.80;;;5.87;;
36377;SDS011;22402;42.746;23.606;2022-10-16T06:13:41;21.33;;;7.20;;
36377;SDS011;22402;42.746;23.606;2022-10-16T06:16:07;11.13;;;5.90;;
36377;SDS011;22402;42.746;23.606;2022-10-16T06:18:34;21.07;;;7.87;;
36377;SDS011;22402;42.746;23.606;2022-10-16T06:20:59;26.37;;;8.63;;
36377;SDS011;22402;42.746;23.606;2022-10-16T06:23:33;16.80;;;6.87;;
36377;SDS011;22402;42.746;23.606;2022-10-16T06:26:06;20.50;;;9.03;;
36377;SDS011;22402;42.746;23.606;2022-10-16T06:28:32;26.40;;;9.63;;
36377;SDS011;22402;42.746;23.606;2022-10-16T06:30:58;23.57;;;9.80;;
36377;SDS011;22402;42.746;23.606;2022-10-16T06:33:24;14.27;;;6.97;;
36377;SDS011;22402;42.746;23.606;2022-10-16T06:35:50;18.40;;;7.60;;
36377;SDS011;22402;42.746;23.606;2022-10-16T06:38:15;25.70;;;7.20;;
36377;SDS011;22402;42.746;23.606;2022-10-16T06:40:40;16.37;;;7.67;;
36377;SDS011;22402;42.746;23.606;2022-10-16T06:43:06;16.80;;;9.17;;
36377;SDS011;22402;42.746;23.606;2022-10-16T06:45:31;27.10;;;9.53;;
36377;SDS011;22402;42.746;23.606;2022-10-16T06:47:57;20.97;;;7.83;;
36377;SDS011;22402;42.746;23.606;2022-10-16T06:50:22;17.13;;;7.07;;
36377;SDS011;22402;42.746;23.606;2022-10-16T06:52:48;20.33;;;7.40;;
36377;SDS011;22402;42.746;23.606;2022-10-16T06:55:13;15.63;;;7.33;;
36377;SDS011;22402;42.746;23.606;2022-10-16T06:57:39;25.70;;;8.47;;
36377;SDS011;22402;42.746;23.606;2022-10-16T07:00:04;16.43;;;7.70;;
36377;SDS011;22402;42.746;23.606;2022-10-16T07:02:30;20.20;;;7.17;;
36377;SDS011;22402;42.746;23.606;2022-10-16T07:04:56;15.25;;;6.80;;
36377;SDS011;22402;42.746;23.606;2022-10-16T07:07:21;21.97;;;6.63;;
36377;SDS011;22402;42.746;23.606;2022-10-16T07:09:46;19.43;;;6.57;;
36377;SDS011;22402;42.746;23.606;2022-10-16T07:12:12;24.53;;;8.00;;
36377;SDS011;22402;42.746;23.606;2022-10-16T07:14:37;14.63;;;6.33;;
36377;SDS011;22402;42.746;23.606;2022-10-16T07:17:03;20.83;;;7.00;;
36377;SDS011;22402;42.746;23.606;2022-10-16T07:19:28;19.17;;;5.70;;
36377;SDS011;22402;42.746;23.606;2022-10-16T07:21:53;16.93;;;6.10;;
36377;SDS011;22402;42.746;23.606;2022-10-16T07:24:18;21.87;;;7.60;;
36377;SDS011;22402;42.746;23.606;2022-10-16T07:26:44;14.60;;;6.53;;
36377;SDS011;22402;42.746;23.606;2022-10-16T07:29:14;27.23;;;7.03;;
36377;SDS011;22402;42.746;23.606;2022-10-16T07:31:44;21.67;;;6.30;;
36377;SDS011;22402;42.746;23.606;2022-10-16T07:34:13;28.60;;;7.00;;
36377;SDS011;22402;42.746;23.606;2022-10-16T07:36:39;22.43;;;7.20;;
36377;SDS011;22402;42.746;23.606;2022-10-16T07:39:04;21.80;;;7.23;;
36377;SDS011;22402;42.746;23.606;2022-10-16T07:41:30;23.60;;;7.50;;
36377;SDS011;22402;42.746;23.606;2022-10-16T07:43:55;25.53;;;7.33;;
36377;SDS011;22402;42.746;23.606;2022-10-16T07:46:22;37.53;;;8.70;;
36377;SDS011;22402;42.746;23.606;2022-10-16T07:48:47;23.37;;;7.50;;
36377;SDS011;22402;42.746;23.606;2022-10-16T07:51:14;24.63;;;7.77;;
36377;SDS011;22402;42.746;23.606;2022-10-16T07:53:41;39.77;;;9.60;;
36377;SDS011;22402;42.746;23.606;2022-10-16T07:56:07;32.53;;;9.63;;
36377;SDS011;22402;42.746;23.606;2022-10-16T07:58:33;36.43;;;10.43;;
36377;SDS011;22402;42.746;23.606;2022-10-16T08:01:02;25.27;;;7.50;;
36377;SDS011;22402;42.746;23.606;2022-10-16T08:03:30;25.63;;;7.97;;
36377;SDS011;22402;42.746;23.606;2022-10-16T08:05:56;40.93;;;10.33;;
36377;SDS011;22402;42.746;23.606;2022-10-16T08:08:22;23.57;;;7.53;;
36377;SDS011;22402;42.746;23.606;2022-10-16T08:10:48;31.40;;;9.90;;
36377;SDS011;22402;42.746;23.606;2022-10-16T08:13:13;31.50;;;8.57;;
36377;SDS011;22402;42.746;23.606;2022-10-16T08:15:38;28.57;;;8.57;;
36377;SDS011;22402;42.746;23.606;2022-10-16T08:18:04;20.53;;;7.77;;
36377;SDS011;22402;42.746;23.606;2022-10-16T08:20:30;25.73;;;8.07;;
36377;SDS011;22402;42.746;23.606;2022-10-16T08:22:57;21.87;;;8.27;;
36377;SDS011;22402;42.746;23.606;2022-10-16T08:25:24;27.70;;;7.80;;
36377;SDS011;22402;42.746;23.606;2022-10-16T08:27:50;31.27;;;9.70;;
36377;SDS011;22402;42.746;23.606;2022-10-16T08:30:16;25.53;;;8.93;;
36377;SDS011;22402;42.746;23.606;2022-10-16T08:32:43;23.20;;;8.10;;
36377;SDS011;22402;42.746;23.606;2022-10-16T08:35:08;27.13;;;7.83;;
36377;SDS011;22402;42.746;23.606;2022-10-16T08:37:35;27.00;;;8.63;;
36377;SDS011;22402;42.746;23.606;2022-10-16T08:40:00;22.17;;;7.93;;
36377;SDS011;22402;42.746;23.606;2022-10-16T08:51:03;27.43;;;8.87;;
36377;SDS011;22402;42.746;23.606;2022-10-16T08:53:41;25.30;;;9.43;;
36377;SDS011;22402;42.746;23.606;2022-10-16T08:56:12;35.30;;;11.07;;
36377;SDS011;22402;42.746;23.606;2022-10-16T08:58:38;30.00;;;10.00;;
36377;SDS011;22402;42.746;23.606;2022-10-16T09:01:04;28.77;;;7.33;;
36377;SDS011;22402;42.746;23.606;2022-10-16T09:06:45;28.67;;;8.93;;
36377;SDS011;22402;42.746;23.606;2022-10-16T09:11:55;31.73;;;10.63;;
36377;SDS011;22402;42.746;23.606;2022-10-16T09:19:51;30.70;;;9.33;;
36377;SDS011;22402;42.746;23.606;2022-10-16T09:22:26;28.73;;;8.90;;
36377;SDS011;22402;42.746;23.606;2022-10-16T09:24:53;30.10;;;8.33;;
36377;SDS011;22402;42.746;23.606;2022-10-16T09:27:19;37.93;;;10.90;;
36377;SDS011;22402;42.746;23.606;2022-10-16T09:29:45;29.33;;;9.90;;
36377;SDS011;22402;42.746;23.606;2022-10-16T09:32:14;25.90;;;8.70;;
36377;SDS011;22402;42.746;23.606;2022-10-16T09:34:46;34.33;;;9.27;;
36377;SDS011;22402;42.746;23.606;2022-10-16T09:37:17;54.30;;;16.33;;
36377;SDS011;22402;42.746;23.606;2022-10-16T09:39:44;41.30;;;12.40;;
36377;SDS011;22402;42.746;23.606;2022-10-16T09:42:20;29.90;;;8.20;;
36377;SDS011;22402;42.746;23.606;2022-10-16T09:44:49;57.60;;;17.80;;
36377;SDS011;22402;42.746;23.606;2022-10-16T09:47:20;26.10;;;8.03;;
36377;SDS011;22402;42.746;23.606;2022-10-16T09:49:52;36.67;;;9.40;;
36377;SDS011;22402;42.746;23.606;2022-10-16T09:52:19;25.23;;;7.90;;
36377;SDS011;22402;42.746;23.606;2022-10-16T09:55:27;32.50;;;9.60;;
36377;SDS011;22402;42.746;23.606;2022-10-16T09:57:48;21.37;;;7.57;;
36377;SDS011;22402;42.746;23.606;2022-10-16T10:00:15;20.60;;;6.40;;
36377;SDS011;22402;42.746;23.606;2022-10-16T10:02:41;30.97;;;9.47;;
36377;SDS011;22402;42.746;23.606;2022-10-16T10:05:17;25.83;;;8.40;;
36377;SDS011;22402;42.746;23.606;2022-10-16T10:07:45;30.93;;;7.93;;
36377;SDS011;22402;42.746;23.606;2022-10-16T10:10:19;30.83;;;8.13;;
36377;SDS011;22402;42.746;23.606;2022-10-16T10:12:46;37.57;;;9.83;;
36377;SDS011;22402;42.746;23.606;2022-10-16T10:15:12;27.93;;;8.30;;
36377;SDS011;22402;42.746;23.606;2022-10-16T10:17:46;39.13;;;8.10;;
36377;SDS011;22402;42.746;23.606;2022-10-16T10:20:33;31.70;;;8.20;;
36377;SDS011;22402;42.746;23.606;2022-10-16T10:23:00;20.03;;;6.27;;
36377;SDS011;22402;42.746;23.606;2022-10-16T10:36:49;26.67;;;7.27;;
36377;SDS011;22402;42.746;23.606;2022-10-16T10:39:32;19.23;;;6.50;;
36377;SDS011;22402;42.746;23.606;2022-10-16T10:42:24;28.60;;;8.47;;
36377;SDS011;22402;42.746;23.606;2022-10-16T10:45:36;33.43;;;7.80;;
36377;SDS011;22402;42.746;23.606;2022-10-16T10:48:17;29.23;;;8.03;;
36377;SDS011;22402;42.746;23.606;2022-10-16T10:50:49;15.37;;;5.40;;
36377;SDS011;22402;42.746;23.606;2022-10-16T11:07:21;32.30;;;9.33;;
36377;SDS011;22402;42.746;23.606;2022-10-16T11:10:26;21.90;;;6.50;;
36377;SDS011;22402;42.746;23.606;2022-10-16T11:12:47;26.23;;;7.27;;
36377;SDS011;22402;42.746;23.606;2022-10-16T11:17:55;28.33;;;8.23;;
36377;SDS011;22402;42.746;23.606;2022-10-16T11:20:29;24.60;;;7.03;;
36377;SDS011;22402;42.746;23.606;2022-10-16T11:23:02;24.00;;;6.93;;
36377;SDS011;22402;42.746;23.606;2022-10-16T11:25:32;23.47;;;7.40;;
36377;SDS011;22402;42.746;23.606;2022-10-16T11:28:17;26.80;;;8.03;;
36377;SDS011;22402;42.746;23.606;2022-10-16T11:30:57;42.00;;;11.77;;
36377;SDS011;22402;42.746;23.606;2022-10-16T11:33:33;25.07;;;6.70;;
36377;SDS011;22402;42.746;23.606;2022-10-16T11:36:16;25.73;;;6.70;;
36377;SDS011;22402;42.746;23.606;2022-10-16T11:41:35;28.67;;;7.97;;
36377;SDS011;22402;42.746;23.606;2022-10-16T11:46:32;17.70;;;5.57;;
36377;SDS011;22402;42.746;23.606;2022-10-16T11:49:20;19.60;;;6.20;;
36377;SDS011;22402;42.746;23.606;2022-10-16T11:51:51;30.13;;;6.63;;
36377;SDS011;22402;42.746;23.606;2022-10-16T11:54:26;16.53;;;5.60;;
36377;SDS011;22402;42.746;23.606;2022-10-16T11:57:10;21.20;;;6.83;;
36377;SDS011;22402;42.746;23.606;2022-10-16T11:59:48;16.30;;;5.37;;
36377;SDS011;22402;42.746;23.606;2022-10-16T12:04:48;26.83;;;5.97;;
36377;SDS011;22402;42.746;23.606;2022-10-16T12:07:27;22.53;;;5.83;;
36377;SDS011;22402;42.746;23.606;2022-10-16T12:10:09;15.33;;;4.30;;
36377;SDS011;22402;42.746;23.606;2022-10-16T12:12:43;18.53;;;4.90;;
36377;SDS011;22402;42.746;23.606;2022-10-16T12:15:42;30.33;;;6.77;;
36377;SDS011;22402;42.746;23.606;2022-10-16T12:18:00;19.13;;;4.70;;
36377;SDS011;22402;42.746;23.606;2022-10-16T12:22:54;15.50;;;4.20;;
36377;SDS011;22402;42.746;23.606;2022-10-16T12:25:34;23.93;;;6.97;;
36377;SDS011;22402;42.746;23.606;2022-10-16T12:28:03;16.80;;;5.20;;
36377;SDS011;22402;42.746;23.606;2022-10-16T12:30:30;20.73;;;4.63;;
36377;SDS011;22402;42.746;23.606;2022-10-16T12:32:58;19.80;;;7.40;;
36377;SDS011;22402;42.746;23.606;2022-10-16T12:35:28;32.30;;;10.37;;
36377;SDS011;22402;42.746;23.606;2022-10-16T12:38:15;20.07;;;6.33;;
36377;SDS011;22402;42.746;23.606;2022-10-16T12:40:43;17.63;;;5.33;;
36377;SDS011;22402;42.746;23.606;2022-10-16T12:43:12;16.33;;;6.23;;
36377;SDS011;22402;42.746;23.606;2022-10-16T12:46:02;18.13;;;6.23;;
36377;SDS011;22402;42.746;23.606;2022-10-16T12:48:30;21.97;;;5.53;;
36377;SDS011;22402;42.746;23.606;2022-10-16T12:50:56;21.53;;;5.90;;
36377;SDS011;22402;42.746;23.606;2022-10-16T12:53:25;20.00;;;6.20;;
36377;SDS011;22402;42.746;23.606;2022-10-16T13:01:25;14.57;;;4.73;;
36377;SDS011;22402;42.746;23.606;2022-10-16T13:07:24;14.40;;;4.27;;
36377;SDS011;22402;42.746;23.606;2022-10-16T13:14:51;23.33;;;6.30;;
36377;SDS011;22402;42.746;23.606;2022-10-16T13:17:25;20.33;;;5.10;;
36377;SDS011;22402;42.746;23.606;2022-10-16T13:28:21;19.10;;;5.90;;
36377;SDS011;22402;42.746;23.606;2022-10-16T13:30:52;16.40;;;5.00;;
36377;SDS011;22402;42.746;23.606;2022-10-16T13:33:21;27.13;;;7.10;;
36377;SDS011;22402;42.746;23.606;2022-10-16T13:35:56;19.70;;;6.00;;
36377;SDS011;22402;42.746;23.606;2022-10-16T13:38:22;20.17;;;6.13;;
36377;SDS011;22402;42.746;23.606;2022-10-16T13:46:15;12.50;;;4.93;;
36377;SDS011;22402;42.746;23.606;2022-10-16T13:48:42;14.83;;;4.97;;
36377;SDS011;22402;42.746;23.606;2022-10-16T13:51:14;11.13;;;4.20;;
36377;SDS011;22402;42.746;23.606;2022-10-16T13:53:42;14.87;;;4.63;;
36377;SDS011;22402;42.746;23.606;2022-10-16T13:56:12;14.43;;;4.37;;
36377;SDS011;22402;42.746;23.606;2022-10-16T13:58:40;15.97;;;4.30;;
36377;SDS011;22402;42.746;23.606;2022-10-16T14:01:15;16.23;;;5.47;;
36377;SDS011;22402;42.746;23.606;2022-10-16T14:03:52;19.83;;;5.70;;
36377;SDS011;22402;42.746;23.606;2022-10-16T14:06:19;16.07;;;5.40;;
36377;SDS011;22402;42.746;23.606;2022-10-16T14:08:48;30.10;;;8.73;;
36377;SDS011;22402;42.746;23.606;2022-10-16T14:11:24;15.37;;;4.87;;
36377;SDS011;22402;42.746;23.606;2022-10-16T14:13:50;19.07;;;5.10;;
36377;SDS011;22402;42.746;23.606;2022-10-16T14:16:17;11.60;;;4.03;;
36377;SDS011;22402;42.746;23.606;2022-10-16T14:18:58;14.07;;;5.07;;
36377;SDS011;22402;42.746;23.606;2022-10-16T14:21:23;18.37;;;5.17;;
36377;SDS011;22402;42.746;23.606;2022-10-16T14:23:49;14.90;;;4.50;;
36377;SDS011;22402;42.746;23.606;2022-10-16T14:26:16;19.87;;;5.60;;
36377;SDS011;22402;42.746;23.606;2022-10-16T14:28:44;16.03;;;4.43;;
36377;SDS011;22402;42.746;23.606;2022-10-16T14:31:27;14.53;;;4.70;;
36377;SDS011;22402;42.746;23.606;2022-10-16T14:33:55;15.73;;;5.13;;
36377;SDS011;22402;42.746;23.606;2022-10-16T14:36:20;16.97;;;5.73;;
36377;SDS011;22402;42.746;23.606;2022-10-16T14:41:32;15.90;;;4.53;;
36377;SDS011;22402;42.746;23.606;2022-10-16T14:44:06;20.00;;;6.10;;
36377;SDS011;22402;42.746;23.606;2022-10-16T14:46:35;23.23;;;6.60;;
36377;SDS011;22402;42.746;23.606;2022-10-16T14:51:33;14.20;;;5.90;;
36377;SDS011;22402;42.746;23.606;2022-10-16T14:53:59;33.07;;;8.37;;
36377;SDS011;22402;42.746;23.606;2022-10-16T14:56:25;25.03;;;7.70;;
36377;SDS011;22402;42.746;23.606;2022-10-16T14:58:55;15.80;;;6.07;;
36377;SDS011;22402;42.746;23.606;2022-10-16T15:01:21;16.07;;;6.97;;
36377;SDS011;22402;42.746;23.606;2022-10-16T15:03:46;17.40;;;7.50;;
36377;SDS011;22402;42.746;23.606;2022-10-16T15:06:15;17.20;;;6.70;;
36377;SDS011;22402;42.746;23.606;2022-10-16T15:08:41;14.00;;;5.63;;
36377;SDS011;22402;42.746;23.606;2022-10-16T15:11:11;19.33;;;5.50;;
36377;SDS011;22402;42.746;23.606;2022-10-16T15:13:38;16.93;;;5.40;;
36377;SDS011;22402;42.746;23.606;2022-10-16T15:16:04;27.27;;;7.30;;
36377;SDS011;22402;42.746;23.606;2022-10-16T15:18:29;18.87;;;6.00;;
36377;SDS011;22402;42.746;23.606;2022-10-16T15:20:54;24.27;;;7.13;;
36377;SDS011;22402;42.746;23.606;2022-10-16T15:23:20;23.13;;;6.80;;
36377;SDS011;22402;42.746;23.606;2022-10-16T15:25:51;23.93;;;6.23;;
36377;SDS011;22402;42.746;23.606;2022-10-16T15:28:18;26.13;;;7.60;;
36377;SDS011;22402;42.746;23.606;2022-10-16T15:30:43;16.93;;;5.43;;
36377;SDS011;22402;42.746;23.606;2022-10-16T15:33:11;26.23;;;7.33;;
36377;SDS011;22402;42.746;23.606;2022-10-16T15:35:39;15.53;;;5.30;;
36377;SDS011;22402;42.746;23.606;2022-10-16T15:38:04;15.43;;;5.70;;
36377;SDS011;22402;42.746;23.606;2022-10-16T15:40:29;14.63;;;5.50;;
36377;SDS011;22402;42.746;23.606;2022-10-16T15:42:55;29.60;;;6.40;;
36377;SDS011;22402;42.746;23.606;2022-10-16T15:45:20;25.90;;;7.30;;
36377;SDS011;22402;42.746;23.606;2022-10-16T15:47:45;32.63;;;8.43;;
36377;SDS011;22402;42.746;23.606;2022-10-16T15:50:11;18.70;;;6.10;;
36377;SDS011;22402;42.746;23.606;2022-10-16T15:52:38;15.43;;;5.50;;
36377;SDS011;22402;42.746;23.606;2022-10-16T15:55:05;18.57;;;6.07;;
36377;SDS011;22402;42.746;23.606;2022-10-16T15:57:32;17.57;;;6.00;;
36377;SDS011;22402;42.746;23.606;2022-10-16T15:59:57;14.67;;;4.43;;
36377;SDS011;22402;42.746;23.606;2022-10-16T16:02:22;19.53;;;6.33;;
36377;SDS011;22402;42.746;23.606;2022-10-16T16:04:48;26.77;;;8.77;;
36377;SDS011;22402;42.746;23.606;2022-10-16T16:07:13;33.37;;;14.60;;
36377;SDS011;22402;42.746;23.606;2022-10-16T16:09:39;20.80;;;8.73;;
36377;SDS011;22402;42.746;23.606;2022-10-16T16:12:04;24.17;;;9.43;;
36377;SDS011;22402;42.746;23.606;2022-10-16T16:14:30;28.73;;;9.00;;
36377;SDS011;22402;42.746;23.606;2022-10-16T16:16:55;17.10;;;6.37;;
36377;SDS011;22402;42.746;23.606;2022-10-16T16:19:21;26.97;;;12.67;;
36377;SDS011;22402;42.746;23.606;2022-10-16T16:21:48;18.10;;;5.93;;